FAOR/JNB METAR and TAF weather

Enter ICAO airport designator
Station Type Date Time Source
FAOR METAR 2019/02/23 23:00 UTC NOAA

FAOR 232300Z 31007KT CAVOK 21/14 Q1019 NOSIG


Station Type Date Time Source
FAOR Decoded METAR 2019/02/23 23:00 UTC NOAA

Station name not available
Feb 23, 2019 - 06:00 PM EST / 2019.02.23 2300 UTC
Wind: from the NW (310 degrees) at 8 MPH (7 KT):0
Visibility: greater than 7 mile(s):0
Temperature: 69 F (21 C)
Dew Point: 57 F (14 C)
Relative Humidity: 64%
Pressure (altimeter): 30.09 in. Hg (1019 hPa)
ob: FAOR 232300Z 31007KT CAVOK 21/14 Q1019 NOSIG
cycle: 23

Station Type Date Time Source
FAOR TAF 2019/02/23 18:00 UTC NOAA

TAF FAOR 231600Z 2318/2424 30012KT CAVOK TX28/2413Z TN14/2403Z
BECMG 2322/2324 VRB03KT
BECMG 2401/2403 12010KT
BECMG 2404/2406 06010KT
BECMG 2412/2415 VRB03KT PROB30
TEMPO 2415/2418 FEW040TCU
BECMG 2420/2422 06010KT


Example: see airport list